Time;durP1;ratioP1;P1;durP2;ratioP2;P2;SDS_P1;SDS_P2;PMS_P1;PMS_P2;Temp;Humidity;BMP_temperature;BMP_pressure;BME280_temperature;BME280_humidity;BME280_pressure;Samples;Min_cycle;Max_cycle;Signal;HPM_P1;HPM_P2
2022/02/11 00:07:07;;;;;;;28.50;19.77;;;;;;;5.03;78.94;101348.22;1763897;78;21433;-67
2022/02/11 00:09:34;;;;;;;27.70;19.17;;;;;;;5.07;78.80;101350.27;1821428;78;21143;-67
2022/02/11 00:12:01;;;;;;;28.38;19.73;;;;;;;5.08;78.54;101348.09;1821561;78;20950;-67
2022/02/11 00:14:32;;;;;;;29.52;20.02;;;;;;;5.06;78.32;101335.13;1821502;78;21017;-67
2022/02/11 00:16:58;;;;;;;28.27;19.65;;;;;;;5.05;78.16;101346.44;1821609;78;20910;-68
2022/02/11 00:19:25;;;;;;;28.17;20.15;;;;;;;5.01;78.12;101337.45;1821248;78;20927;-67
2022/02/11 00:21:52;;;;;;;26.90;19.42;;;;;;;4.96;78.06;101341.47;1821306;78;23139;-68
2022/02/11 00:24:19;;;;;;;27.15;19.40;;;;;;;4.90;78.04;101340.31;1821405;78;20884;-67
2022/02/11 00:27:02;;;;;;;28.25;19.62;;;;;;;4.84;78.10;101333.97;1821349;78;21358;-68
2022/02/11 00:34:12;;;;;;;28.85;21.35;;;;;;;4.84;78.39;101333.97;1821307;78;21103;-67
2022/02/11 00:36:57;;;;;;;28.73;20.70;;;;;;;4.83;78.36;101321.42;1821553;78;21354;-67
2022/02/11 00:43:02;;;;;;;29.85;21.23;;;;;;;4.83;78.32;101311.48;1821369;78;21480;-67
2022/02/11 00:53:12;;;;;;;;;;;;;;;4.78;78.24;101312.90;1824071;78;21803;-66
2022/02/11 01:05:51;;;;;;;30.32;21.05;;;;;;;4.80;79.01;101303.75;1821470;78;20888;-67
2022/02/11 01:08:18;;;;;;;35.92;23.80;;;;;;;4.82;78.92;101304.11;1821312;78;21318;-68
2022/02/11 01:10:45;;;;;;;32.15;23.00;;;;;;;4.84;78.88;101303.63;1821324;78;20848;-67
2022/02/11 01:13:14;;;;;;;33.08;23.22;;;;;;;4.86;78.79;101308.80;1821412;78;21421;-66
2022/02/11 01:15:47;;;;;;;31.90;22.98;;;;;;;4.86;78.65;101308.80;1821305;78;21006;-67
2022/02/11 01:18:12;;;;;;;33.20;22.48;;;;;;;4.84;78.61;101316.62;1820563;78;20887;-68
2022/02/11 01:20:48;;;;;;;31.33;21.02;;;;;;;4.80;78.65;101314.98;1821364;78;20865;-67
2022/02/11 01:24:00;;;;;;;33.45;23.90;;;;;;;4.77;78.80;101310.72;1820701;78;20939;-66
2022/02/11 01:28:26;;;;;;;29.20;22.05;;;;;;;4.78;79.05;101299.91;1821560;78;20884;-66
2022/02/11 01:44:40;;;;;;;38.53;25.82;;;;;;;4.75;78.83;101290.87;1821693;78;20872;-66
2022/02/11 01:54:49;;;;;;;39.65;24.65;;;;;;;4.56;79.22;101281.40;1821313;78;20903;-67
2022/02/11 01:57:13;;;;;;;37.55;25.27;;;;;;;4.55;79.44;101284.41;1816471;78;20983;-67
2022/02/11 02:00:21;;;;;;;40.67;24.50;;;;;;;4.57;79.59;101282.64;1820221;78;20907;-66
2022/02/11 02:27:01;;;;;;;46.33;26.60;;;;;;;4.66;79.60;101293.25;1758194;81;20932;-67
2022/02/11 02:30:09;;;;;;;39.98;27.07;;;;;;;4.67;79.69;101290.20;1754493;81;20856;-66
2022/02/11 02:37:18;;;;;;;38.17;28.50;;;;;;;4.72;79.81;101285.77;1758413;80;21169;-66
2022/02/11 02:50:23;;;;;;;40.05;27.60;;;;;;;4.73;79.32;101270.11;1758205;80;21150;-66
2022/02/11 02:58:15;;;;;;;37.90;28.02;;;;;;;4.66;79.56;101275.06;1758566;81;20880;-69
2022/02/11 03:14:55;;;;;;;37.25;25.75;;;;;;;4.83;79.56;101261.66;1745026;82;20928;-67
2022/02/11 03:17:53;;;;;;;35.23;25.40;;;;;;;4.82;79.62;101261.69;1743038;81;21168;-67
2022/02/11 04:55:25;;;;;;;29.07;19.92;;;;;;;4.53;80.03;101214.77;1744811;82;22608;-69
2022/02/11 05:00:39;;;;;;;;;;;;;;;4.48;79.68;101216.64;1747454;81;21465;-67
2022/02/11 05:03:07;;;;;;;31.00;21.02;;;;;;;4.42;79.79;101220.68;1744814;82;20378;-68
2022/02/11 05:05:49;;;;;;;31.97;20.97;;;;;;;4.39;80.03;101218.17;1744432;82;21144;-69
2022/02/11 05:08:03;;;;;;;33.40;21.85;;;;;;;4.39;80.05;101210.83;1743811;81;20933;-66
2022/02/11 05:10:30;;;;;;;30.85;21.97;;;;;;;4.41;80.34;101218.14;1744537;82;20893;-67
2022/02/11 05:12:59;;;;;;;27.30;20.12;;;;;;;4.45;80.45;101216.73;1744630;82;20873;-68
2022/02/11 05:15:26;;;;;;;27.22;19.30;;;;;;;4.47;80.27;101212.77;1744626;82;20949;-68
2022/02/11 05:17:53;;;;;;;27.25;19.95;;;;;;;4.47;80.30;101216.25;1744562;81;21535;-69
2022/02/11 05:20:20;;;;;;;26.12;19.65;;;;;;;4.50;80.24;101210.97;1744416;81;20865;-69
2022/02/11 05:22:47;;;;;;;28.77;19.77;;;;;;;4.52;80.27;101210.94;1744587;82;20988;-68
2022/02/11 05:25:14;;;;;;;27.95;19.62;;;;;;;4.54;80.15;101211.75;1744533;82;21059;-68
2022/02/11 05:27:41;;;;;;;23.38;18.35;;;;;;;4.54;79.97;101213.05;1744764;82;21394;-68
2022/02/11 05:30:11;;;;;;;27.30;19.07;;;;;;;4.53;79.88;101213.92;1744598;82;21512;-69
2022/02/11 05:32:39;;;;;;;27.13;19.07;;;;;;;4.53;79.80;101218.66;1744722;82;20940;-69
2022/02/11 05:35:07;;;;;;;27.42;19.30;;;;;;;4.52;79.79;101216.97;1744433;82;20924;-69
2022/02/11 05:37:34;;;;;;;28.75;19.45;;;;;;;4.53;79.71;101210.03;1744650;80;21514;-68
2022/02/11 05:40:01;;;;;;;30.88;19.00;;;;;;;4.51;79.76;101215.28;1744524;82;20992;-69
2022/02/11 05:42:28;;;;;;;25.77;19.40;;;;;;;4.51;79.77;101213.98;1744541;81;21921;-69
2022/02/11 05:44:55;;;;;;;24.10;18.85;;;;;;;4.51;79.78;101210.09;1744680;80;20925;-69
2022/02/11 05:47:22;;;;;;;25.57;18.87;;;;;;;4.51;79.71;101208.79;1744963;82;20909;-69
2022/02/11 05:49:54;;;;;;;24.52;19.07;;;;;;;4.48;79.71;101220.53;1744526;82;21447;-69
2022/02/11 05:52:21;;;;;;;26.00;19.05;;;;;;;4.46;79.75;101207.19;1743999;81;20897;-69
2022/02/11 05:54:49;;;;;;;24.57;20.12;;;;;;;4.44;79.71;101209.81;1744543;82;21538;-68
2022/02/11 05:57:15;;;;;;;23.38;18.10;;;;;;;4.45;79.67;101218.03;1744684;82;20893;-69
2022/02/11 05:59:42;;;;;;;25.88;19.75;;;;;;;4.44;79.57;101217.60;1744531;82;20889;-74
2022/02/11 06:02:09;;;;;;;26.20;17.80;;;;;;;4.42;79.51;101212.05;1745051;82;21414;-72
2022/02/11 06:04:37;;;;;;;27.30;19.25;;;;;;;4.42;79.53;101216.78;1747138;81;20987;-73
2022/02/11 06:07:04;;;;;;;30.05;19.10;;;;;;;4.43;79.65;101213.77;1756768;81;22048;-72
2022/02/11 06:09:33;;;;;;;27.00;17.82;;;;;;;4.45;79.61;101215.88;1756265;80;21568;-73
2022/02/11 06:12:00;;;;;;;24.72;17.85;;;;;;;4.47;79.72;101215.37;1755728;81;20935;-74
2022/02/11 06:14:27;;;;;;;26.48;18.65;;;;;;;4.51;79.71;101215.28;1757569;81;20908;-72
2022/02/11 06:16:54;;;;;;;31.50;21.15;;;;;;;4.54;79.65;101215.64;1757867;80;20908;-72
2022/02/11 06:19:21;;;;;;;28.25;21.15;;;;;;;4.57;79.47;101220.30;1757737;81;21799;-72
2022/02/11 06:21:48;;;;;;;31.20;22.10;;;;;;;4.59;79.27;101214.23;1757686;81;20931;-72
2022/02/11 06:24:15;;;;;;;31.87;22.67;;;;;;;4.57;79.04;101209.91;1757788;80;21007;-72
2022/02/11 06:26:44;;;;;;;27.50;19.17;;;;;;;4.55;78.93;101206.49;1757841;80;21488;-73
2022/02/11 06:29:16;;;;;;;27.17;19.90;;;;;;;4.52;78.83;101209.18;1740924;81;20936;-72
2022/02/11 06:31:43;;;;;;;23.67;17.67;;;;;;;4.49;78.88;101208.39;1757757;81;21096;-74
2022/02/11 06:34:10;;;;;;;24.80;17.10;;;;;;;4.46;78.94;101204.13;1757654;81;21434;-73
2022/02/11 06:36:37;;;;;;;18.98;14.33;;;;;;;4.46;78.97;101209.78;1757974;80;21367;-69
2022/02/11 06:39:06;;;;;;;22.60;14.68;;;;;;;4.47;78.88;101201.96;1757733;81;20995;-71
2022/02/11 06:41:33;;;;;;;21.50;15.53;;;;;;;4.44;78.87;101202.02;1758156;81;20880;-72
2022/02/11 06:44:00;;;;;;;20.75;14.63;;;;;;;4.42;78.82;101196.02;1757763;81;21135;-71
2022/02/11 06:46:27;;;;;;;17.98;13.68;;;;;;;4.41;78.81;101206.45;1758058;81;20893;-73
2022/02/11 06:48:54;;;;;;;24.30;16.07;;;;;;;4.36;78.72;101200.93;1757796;80;21500;-72
2022/02/11 06:51:21;;;;;;;20.82;14.07;;;;;;;4.33;78.70;101197.09;1758174;81;20908;-71
2022/02/11 06:53:49;;;;;;;18.87;14.70;;;;;;;4.31;78.71;101194.13;1757930;81;20857;-71
2022/02/11 06:56:15;;;;;;;18.87;13.32;;;;;;;4.27;78.78;101196.39;1758415;81;21107;-72
2022/02/11 06:58:44;;;;;;;20.20;13.93;;;;;;;4.24;78.82;101187.39;1757931;80;21455;-71
2022/02/11 07:01:11;;;;;;;19.92;13.10;;;;;;;4.21;78.90;101190.07;1758129;81;20924;-70
2022/02/11 07:03:38;;;;;;;21.25;13.68;;;;;;;4.18;79.00;101186.23;1757801;81;20972;-72
2022/02/11 07:06:05;;;;;;;16.70;12.55;;;;;;;4.19;79.03;101180.17;1748305;81;20901;-71
2022/02/11 07:08:35;;;;;;;21.52;13.90;;;;;;;4.17;79.06;101174.16;1744656;81;21500;-72
2022/02/11 07:11:02;;;;;;;20.97;14.85;;;;;;;4.15;79.13;101175.03;1744774;80;20826;-71
2022/02/11 07:13:31;;;;;;;21.35;14.45;;;;;;;4.14;79.13;101170.75;1744637;82;20917;-72
2022/02/11 07:15:58;;;;;;;24.82;14.35;;;;;;;4.13;79.08;101166.88;1744890;81;20893;-71
2022/02/11 07:18:24;;;;;;;18.50;13.62;;;;;;;4.11;79.06;101159.58;1744637;82;20910;-73
2022/02/11 07:20:51;;;;;;;17.15;13.20;;;;;;;4.08;79.05;101162.26;1744681;82;20990;-71
2022/02/11 07:23:18;;;;;;;26.93;17.12;;;;;;;4.04;79.02;101152.84;1744454;82;20952;-71
2022/02/11 07:25:46;;;;;;;21.97;15.40;;;;;;;4.02;79.13;101153.31;1744487;82;20881;-73
2022/02/11 07:28:13;;;;;;;21.17;15.28;;;;;;;4.02;79.25;101154.61;1744729;80;21403;-72
2022/02/11 07:33:30;;;;;;;19.23;13.80;;;;;;;3.99;79.34;101143.87;1723672;78;21070;-76
2022/02/11 07:35:57;;;;;;;14.80;10.95;;;;;;;4.00;79.39;101135.63;1695381;84;20939;-75
2022/02/11 07:38:23;;;;;;;16.37;13.50;;;;;;;4.00;79.45;101136.93;1695798;84;21035;-76
2022/02/11 07:40:51;;;;;;;17.32;12.82;;;;;;;4.02;79.49;101139.05;1695470;84;21404;-75
2022/02/11 07:43:17;;;;;;;17.15;13.20;;;;;;;4.05;79.48;101136.39;1695467;83;20963;-77
2022/02/11 07:45:45;;;;;;;20.57;13.55;;;;;;;4.07;79.38;101132.86;1695404;84;21933;-79
2022/02/11 07:48:12;;;;;;;17.45;12.98;;;;;;;4.08;79.28;101124.63;1695473;83;20948;-78
2022/02/11 07:50:39;;;;;;;16.82;12.63;;;;;;;4.06;79.15;101125.11;1695485;84;20887;-77
2022/02/11 07:53:06;;;;;;;19.95;13.80;;;;;;;4.04;79.13;101127.73;1695489;83;20932;-77
2022/02/11 07:55:34;;;;;;;20.23;13.60;;;;;;;4.04;79.18;101122.54;1695582;84;21141;-75
2022/02/11 07:58:01;;;;;;;19.48;14.15;;;;;;;4.05;79.21;101124.27;1695417;84;21129;-75
2022/02/11 08:00:28;;;;;;;21.52;14.55;;;;;;;4.06;79.24;101118.62;1695375;84;20971;-77
2022/02/11 08:02:55;;;;;;;21.00;14.38;;;;;;;4.08;79.22;101118.14;1695420;84;21023;-76
2022/02/11 08:05:22;;;;;;;20.10;13.18;;;;;;;4.10;79.17;101125.44;1695283;83;21460;-76
2022/02/11 08:07:49;;;;;;;16.90;12.35;;;;;;;4.12;79.12;101119.77;1695612;84;21426;-74
2022/02/11 08:10:16;;;;;;;17.57;12.53;;;;;;;4.13;78.99;101117.11;1695338;83;21551;-76
2022/02/11 08:12:43;;;;;;;20.68;13.20;;;;;;;4.14;78.87;101114.95;1695451;84;20928;-76
2022/02/11 08:15:10;;;;;;;17.87;13.20;;;;;;;4.17;78.88;101106.67;1695440;83;20919;-80
2022/02/11 08:17:40;;;;;;;21.60;13.62;;;;;;;4.17;78.78;101104.92;1695361;84;20936;-78
2022/02/11 08:20:07;;;;;;;19.32;15.13;;;;;;;4.19;78.79;101103.59;1695622;84;21011;-79
2022/02/11 08:22:35;;;;;;;19.40;14.00;;;;;;;4.21;78.71;101107.01;1695126;84;21200;-78
2022/02/11 08:25:01;;;;;;;17.10;13.43;;;;;;;4.22;78.62;101107.40;1695341;84;21485;-79
2022/02/11 08:27:29;;;;;;;18.70;13.08;;;;;;;4.23;78.63;101098.28;1695390;84;20927;-68
2022/02/11 08:29:56;;;;;;;17.25;12.82;;;;;;;4.25;78.73;101104.29;1695303;84;21070;-71
2022/02/11 08:32:24;;;;;;;17.30;13.35;;;;;;;4.29;78.68;101101.15;1695426;84;20896;-70
2022/02/11 08:34:50;;;;;;;20.10;14.33;;;;;;;4.29;78.64;101104.63;1695236;84;21143;-68
2022/02/11 08:37:18;;;;;;;18.60;14.00;;;;;;;4.32;78.59;101097.20;1695342;83;21039;-69
2022/02/11 08:39:46;;;;;;;19.40;12.35;;;;;;;4.39;78.62;101088.80;1695407;83;20940;-71
2022/02/11 08:42:13;;;;;;;22.45;14.20;;;;;;;4.43;78.37;101091.27;1695404;84;20931;-76
2022/02/11 08:44:40;;;;;;;21.75;14.25;;;;;;;4.47;78.26;101090.30;1695410;84;20928;-72
2022/02/11 08:47:07;;;;;;;22.87;15.40;;;;;;;4.51;78.26;101088.45;1695457;84;21105;-72
2022/02/11 08:49:35;;;;;;;18.92;13.38;;;;;;;4.54;78.18;101085.33;1695302;84;20983;-71
2022/02/11 08:52:02;;;;;;;22.42;13.48;;;;;;;4.56;78.08;101077.51;1695639;84;20955;-70
2022/02/11 08:54:29;;;;;;;18.30;11.93;;;;;;;4.59;78.00;101086.95;1695431;84;20924;-70
2022/02/11 08:56:56;;;;;;;22.42;12.63;;;;;;;4.60;77.98;101084.75;1695502;84;20923;-70
2022/02/11 08:59:23;;;;;;;24.25;13.15;;;;;;;4.61;77.98;101076.92;1695503;84;21458;-76
2022/02/11 09:01:50;;;;;;;19.73;12.47;;;;;;;4.64;77.97;101072.93;1695631;83;20892;-73
2022/02/11 09:04:17;;;;;;;17.30;11.12;;;;;;;4.67;78.00;101065.48;1695341;84;21480;-71
2022/02/11 09:06:44;;;;;;;15.65;11.22;;;;;;;4.72;77.93;101068.83;1695599;84;20959;-71
2022/02/11 09:09:13;;;;;;;13.88;10.18;;;;;;;4.77;77.86;101070.84;1695294;84;20888;-71
2022/02/11 09:11:40;;;;;;;17.77;12.35;;;;;;;4.81;77.86;101059.47;1695558;84;21077;-70
2022/02/11 09:14:08;;;;;;;17.45;12.35;;;;;;;4.87;77.80;101054.52;1695326;84;21018;-71
2022/02/11 09:16:36;;;;;;;20.17;12.58;;;;;;;4.93;77.68;101056.95;1695188;84;21007;-70
2022/02/11 09:19:03;;;;;;;16.67;11.53;;;;;;;4.97;77.63;101066.36;1695145;84;20964;-69
2022/02/11 09:21:32;;;;;;;16.77;12.55;;;;;;;5.02;77.52;101060.57;1695569;84;20931;-69
2022/02/11 09:23:59;;;;;;;16.93;11.03;;;;;;;5.05;77.45;101055.30;1696234;84;21134;-70
2022/02/11 09:26:26;;;;;;;17.35;10.82;;;;;;;5.09;77.40;101046.52;1695251;84;21428;-72
2022/02/11 09:28:53;;;;;;;16.17;11.73;;;;;;;5.16;77.37;101036.78;1695413;84;21030;-70
2022/02/11 09:31:26;;;;;;;16.85;10.85;;;;;;;5.22;77.41;101038.33;1695314;84;20928;-71
2022/02/11 09:33:48;;;;;;;14.58;9.55;;;;;;;5.31;77.48;101038.88;1695558;84;20967;-69
2022/02/11 09:36:15;;;;;;;14.18;10.23;;;;;;;5.39;77.34;101031.70;1704694;82;21136;-69
2022/02/11 09:38:42;;;;;;;13.45;10.72;;;;;;;5.48;77.21;101034.45;1705831;82;20917;-69
2022/02/11 09:41:09;;;;;;;17.25;9.63;;;;;;;5.57;77.12;101030.70;1705927;82;20941;-69
2022/02/11 09:43:36;;;;;;;15.15;9.83;;;;;;;5.67;76.69;101029.94;1705775;83;21556;-72
2022/02/11 09:46:02;;;;;;;14.65;9.35;;;;;;;5.73;76.63;101029.28;1706219;84;21005;-71
2022/02/11 09:48:29;;;;;;;13.75;9.95;;;;;;;5.79;76.38;101022.59;1706008;82;21125;-70
2022/02/11 09:50:56;;;;;;;15.72;9.83;;;;;;;5.85;76.35;101020.67;1705754;82;21008;-70
2022/02/11 09:53:29;;;;;;;15.83;11.22;;;;;;;5.91;76.26;101012.20;1705838;84;20890;-71
2022/02/11 09:55:56;;;;;;;16.17;9.33;;;;;;;6.02;76.32;101009.27;1706277;84;21005;-70
2022/02/11 09:58:23;;;;;;;10.38;8.20;;;;;;;6.13;76.30;101012.80;1705705;84;20969;-70
2022/02/11 10:00:52;;;;;;;14.47;9.98;;;;;;;6.26;76.14;101006.25;1706178;84;21761;-71
2022/02/11 10:03:26;;;;;;;13.58;9.23;;;;;;;6.42;75.97;100997.00;1705880;84;20910;-69
2022/02/11 10:05:59;;;;;;;12.45;7.90;;;;;;;6.62;75.49;100997.98;1706185;82;21134;-70
2022/02/11 10:08:29;;;;;;;11.60;8.65;;;;;;;6.80;74.86;100994.70;1705792;82;21005;-69
2022/02/11 10:10:58;;;;;;;12.40;8.88;;;;;;;7.03;74.58;100996.41;1706110;84;21017;-69
2022/02/11 10:13:28;;;;;;;10.95;8.33;;;;;;;7.30;73.96;100986.25;1705918;84;21146;-70
2022/02/11 10:15:59;;;;;;;10.60;7.95;;;;;;;7.64;73.41;100974.80;1706038;84;21016;-69
2022/02/11 10:18:30;;;;;;;10.23;7.50;;;;;;;8.19;72.85;100968.13;1705827;84;20926;-69
2022/02/11 10:21:01;;;;;;;8.30;6.75;;;;;;;8.93;71.88;100966.44;1706105;82;20925;-70
2022/02/11 10:23:36;;;;;;;9.33;7.03;;;;;;;9.72;68.06;100960.84;1705919;82;21009;-69
2022/02/11 10:26:14;;;;;;;9.00;6.47;;;;;;;10.38;65.94;100964.42;1706001;82;21066;-72
2022/02/11 10:28:50;;;;;;;11.10;7.00;;;;;;;10.87;62.90;100961.77;1705962;82;20953;-68
2022/02/11 10:31:31;;;;;;;9.38;7.35;;;;;;;11.25;61.48;100958.75;1706153;82;25017;-69
2022/02/11 10:34:08;;;;;;;8.95;6.22;;;;;;;11.52;60.19;100960.23;1706099;82;20989;-69
2022/02/11 10:36:46;;;;;;;7.70;6.08;;;;;;;11.70;59.74;100949.11;1706020;84;20941;-69
2022/02/11 10:39:22;;;;;;;10.05;7.05;;;;;;;11.88;58.00;100952.45;1705970;84;21143;-68
2022/02/11 10:41:54;;;;;;;8.98;6.03;;;;;;;12.02;57.98;100954.23;1705907;84;20922;-69
2022/02/11 10:44:25;;;;;;;8.00;5.92;;;;;;;12.16;57.29;100957.34;1706223;84;20950;-72
2022/02/11 10:46:55;;;;;;;9.25;6.05;;;;;;;12.26;56.87;100944.02;1705803;84;20966;-70
2022/02/11 10:49:34;;;;;;;10.25;7.10;;;;;;;12.40;56.71;100949.25;1706508;82;21404;-71
2022/02/11 10:52:14;;;;;;;12.40;6.42;;;;;;;12.59;56.00;100945.48;1706318;83;22007;-71
2022/02/11 10:54:45;;;;;;;12.10;6.87;;;;;;;12.75;56.28;100941.40;1706296;84;20958;-68
2022/02/11 10:57:14;;;;;;;9.15;6.62;;;;;;;12.83;55.59;100938.65;1705750;84;20966;-70
2022/02/11 10:59:46;;;;;;;7.17;6.42;;;;;;;12.96;55.37;100936.52;1706312;82;21481;-68
2022/02/11 11:02:20;;;;;;;7.78;6.17;;;;;;;13.10;55.08;100943.07;1706043;84;20894;-75
2022/02/11 11:04:49;;;;;;;8.03;6.25;;;;;;;13.24;54.46;100944.31;1706095;84;22571;-70
2022/02/11 11:07:26;;;;;;;8.85;6.22;;;;;;;13.35;54.17;100938.84;1705473;82;21566;-70
2022/02/11 11:09:54;;;;;;;9.30;6.15;;;;;;;13.32;53.88;100945.17;1705875;83;20899;-70
2022/02/11 11:12:25;;;;;;;7.75;6.40;;;;;;;13.18;54.05;100936.80;1705865;82;20930;-69
2022/02/11 11:14:56;;;;;;;12.93;8.48;;;;;;;13.03;54.76;100939.16;1705657;84;20922;-70
2022/02/11 11:17:21;;;;;;;8.50;5.87;;;;;;;12.89;55.31;100949.23;1705666;84;21216;-70
2022/02/11 11:19:50;;;;;;;11.53;6.50;;;;;;;12.72;55.51;100941.13;1706323;84;21107;-71
2022/02/11 11:22:27;;;;;;;8.28;6.37;;;;;;;12.50;56.18;100941.64;1705900;84;20973;-68
2022/02/11 11:25:03;;;;;;;10.85;6.92;;;;;;;12.23;56.87;100935.84;1705856;84;20996;-71
2022/02/11 11:27:51;;;;;;;10.98;6.90;;;;;;;11.94;57.61;100938.95;1705999;82;20870;-72
2022/02/11 11:30:37;;;;;;;9.23;6.72;;;;;;;11.69;58.25;100940.00;1705969;82;21182;-73
2022/02/11 11:33:12;;;;;;;8.45;6.55;;;;;;;11.34;59.08;100938.52;1705965;84;21021;-71
2022/02/11 11:35:51;;;;;;;12.20;7.50;;;;;;;10.98;59.82;100936.20;1705865;82;20933;-72
2022/02/11 11:38:26;;;;;;;11.20;6.80;;;;;;;10.74;60.65;100933.21;1705937;82;20957;-71
2022/02/11 11:41:12;;;;;;;8.23;5.60;;;;;;;10.56;61.30;100928.48;1705905;82;20926;-71
2022/02/11 11:43:41;;;;;;;10.03;6.75;;;;;;;10.41;61.88;100928.05;1704808;83;21167;-71
2022/02/11 11:46:20;;;;;;;10.03;6.62;;;;;;;10.28;62.61;100930.44;1705545;84;20950;-71
2022/02/11 11:49:06;;;;;;;12.82;6.60;;;;;;;10.11;63.23;100926.92;1705999;84;21494;-70
2022/02/11 11:51:42;;;;;;;12.60;6.20;;;;;;;9.97;64.00;100924.20;1706186;84;20934;-69
2022/02/11 11:54:22;;;;;;;10.18;6.58;;;;;;;9.88;64.65;100919.45;1705914;84;21052;-70
2022/02/11 11:56:59;;;;;;;13.48;7.12;;;;;;;9.84;64.76;100916.61;1706021;84;21125;-69
2022/02/11 11:59:47;;;;;;;11.78;8.08;;;;;;;9.78;64.68;100911.20;1705976;84;21001;-69
2022/02/11 12:02:28;;;;;;;10.63;7.03;;;;;;;9.70;64.98;100909.00;1705890;84;21625;-70
2022/02/11 12:04:57;;;;;;;8.23;6.75;;;;;;;9.62;65.11;100907.70;1705750;84;21550;-72
2022/02/11 12:07:28;;;;;;;10.95;7.05;;;;;;;9.59;65.23;100904.78;1705834;84;20977;-69
2022/02/11 12:09:57;;;;;;;9.50;7.60;;;;;;;9.58;65.11;100910.09;1706016;84;21145;-69
2022/02/11 12:12:27;;;;;;;11.53;8.15;;;;;;;9.52;65.37;100909.48;1705981;84;21551;-67
2022/02/11 12:15:02;;;;;;;8.73;7.08;;;;;;;9.48;65.55;100913.65;1705827;84;20950;-69
2022/02/11 12:17:30;;;;;;;10.10;7.40;;;;;;;9.43;65.51;100920.89;1705956;84;20917;-69
2022/02/11 12:19:56;;;;;;;9.38;8.38;;;;;;;9.35;65.42;100910.80;1705854;82;20962;-70
2022/02/11 12:22:30;;;;;;;12.47;8.45;;;;;;;9.30;65.45;100918.03;1706184;84;21496;-68
2022/02/11 12:27:46;;;;;;;11.68;8.10;;;;;;;9.25;65.94;100913.47;1705925;84;20981;-70
2022/02/11 12:30:22;;;;;;;9.75;8.03;;;;;;;9.22;65.80;100914.48;1706051;84;20933;-69
2022/02/11 12:32:53;;;;;;;13.48;7.60;;;;;;;9.23;66.08;100917.50;1706046;84;21470;-70
2022/02/11 12:35:24;;;;;;;9.20;6.42;;;;;;;9.24;66.00;100911.80;1704078;84;21189;-70
2022/02/11 12:37:51;;;;;;;14.30;10.35;;;;;;;9.23;65.97;100906.19;1688204;85;21377;-69
2022/02/11 12:40:28;;;;;;;10.72;8.18;;;;;;;9.26;66.11;100902.10;1688344;85;21038;-68
2022/02/11 12:43:00;;;;;;;9.63;8.05;;;;;;;9.35;66.11;100910.80;1688216;83;21043;-69
2022/02/11 12:45:32;;;;;;;11.15;8.25;;;;;;;9.49;66.20;100901.80;1688083;84;21710;-69
2022/02/11 12:48:00;;;;;;;9.38;6.75;;;;;;;9.65;65.86;100906.22;1687705;84;21167;-73
2022/02/11 12:50:36;;;;;;;9.83;7.03;;;;;;;9.80;65.55;100905.90;1688328;85;20956;-70
2022/02/11 12:53:07;;;;;;;12.23;7.03;;;;;;;9.94;65.21;100906.88;1688287;85;20908;-69
2022/02/11 12:55:38;;;;;;;12.10;7.78;;;;;;;10.07;65.07;100905.77;1688269;85;21002;-71
2022/02/11 12:58:11;;;;;;;9.30;7.78;;;;;;;10.21;64.72;100905.02;1688384;85;20988;-71
2022/02/11 13:00:41;;;;;;;7.80;6.53;;;;;;;10.30;64.37;100905.03;1687948;85;21830;-72
2022/02/11 13:03:11;;;;;;;9.75;6.83;;;;;;;10.28;63.72;100905.06;1688398;85;21057;-70
2022/02/11 13:05:44;;;;;;;7.90;6.08;;;;;;;10.21;63.43;100906.34;1688361;85;20987;-70
2022/02/11 13:08:28;;;;;;;11.60;7.50;;;;;;;10.11;63.36;100903.81;1689751;85;21097;-69
2022/02/11 13:11:02;;;;;;;8.58;6.62;;;;;;;10.04;63.60;100909.84;1688669;85;20975;-70
2022/02/11 13:13:29;;;;;;;13.38;7.33;;;;;;;9.96;63.82;100905.50;1688749;85;21158;-70
2022/02/11 13:15:57;;;;;;;10.15;6.80;;;;;;;9.89;64.06;100910.66;1688450;85;20983;-69
2022/02/11 13:18:26;;;;;;;8.20;7.08;;;;;;;9.82;64.16;100911.91;1688211;85;20964;-68
2022/02/11 13:20:56;;;;;;;7.75;6.37;;;;;;;9.75;64.37;100913.53;1688315;85;20908;-68
2022/02/11 13:23:24;;;;;;;9.93;7.65;;;;;;;9.68;64.35;100913.94;1688603;85;20920;-69
2022/02/11 13:25:54;;;;;;;12.68;8.18;;;;;;;9.60;64.33;100920.02;1688437;85;21092;-69
2022/02/11 13:28:22;;;;;;;16.37;8.00;;;;;;;9.47;64.54;100921.97;1688624;83;20956;-68
2022/02/11 13:31:00;;;;;;;11.40;8.53;;;;;;;9.39;64.71;100924.59;1688255;85;21463;-72
2022/02/11 13:33:31;;;;;;;11.22;8.73;;;;;;;9.33;64.75;100934.88;1688447;85;21108;-72
2022/02/11 13:36:00;;;;;;;13.20;9.18;;;;;;;9.27;64.89;100936.05;1691906;84;20949;-75
2022/02/11 13:38:30;;;;;;;14.85;10.15;;;;;;;9.22;64.96;100934.57;1705779;83;21133;-73
2022/02/11 13:41:03;;;;;;;19.73;13.50;;;;;;;9.14;64.97;100927.11;1705702;84;21001;-78
2022/02/11 13:43:52;;;;;;;20.95;13.90;;;;;;;9.08;65.24;100928.25;1705732;82;20918;-73
2022/02/11 13:46:27;;;;;;;23.60;14.78;;;;;;;9.05;65.44;100927.56;1705807;84;20934;-70
2022/02/11 13:49:03;;;;;;;23.80;15.75;;;;;;;9.03;65.50;100932.86;1705768;83;20930;-69
2022/02/11 13:51:32;;;;;;;23.70;16.93;;;;;;;9.00;65.44;100928.23;1705351;82;21864;-72
2022/02/11 13:54:12;;;;;;;23.87;16.77;;;;;;;8.96;65.36;100928.86;1706159;84;20966;-72
2022/02/11 13:56:43;;;;;;;22.77;16.57;;;;;;;8.90;65.46;100927.38;1705883;82;20993;-72
2022/02/11 13:59:23;;;;;;;23.40;16.82;;;;;;;8.82;65.51;100923.42;1705532;84;20922;-73
2022/02/11 14:01:47;;;;;;;26.42;18.00;;;;;;;8.74;65.70;100917.70;1705733;84;20937;-71
2022/02/11 14:04:19;;;;;;;25.57;17.80;;;;;;;8.67;66.01;100912.79;1705823;84;21141;-71
2022/02/11 14:06:56;;;;;;;26.62;18.10;;;;;;;8.62;66.18;100912.60;1705649;84;20962;-71
2022/02/11 14:09:40;;;;;;;31.15;18.07;;;;;;;8.59;66.40;100912.30;1705664;82;20938;-72
2022/02/11 14:12:18;;;;;;;21.70;16.40;;;;;;;8.53;66.59;100902.12;1705734;82;20974;-70
2022/02/11 14:14:59;;;;;;;28.92;19.20;;;;;;;8.50;66.74;100907.03;1705825;84;20957;-70
2022/02/11 14:17:29;;;;;;;24.47;17.42;;;;;;;8.44;66.84;100903.39;1705910;83;21995;-70
2022/02/11 14:21:47;;;;;;;34.10;20.50;;;;;;;8.38;67.13;100898.45;1854511;77;22278;-71
2022/02/11 14:24:14;;;;;;;28.42;19.40;;;;;;;8.29;67.24;100907.98;1822114;78;21018;-70
2022/02/11 14:26:40;;;;;;;29.55;20.10;;;;;;;8.23;67.35;100913.05;1822098;78;21120;-71
2022/02/11 14:29:07;;;;;;;23.90;19.48;;;;;;;8.16;67.52;100919.48;1821954;78;20912;-71
2022/02/11 14:31:34;;;;;;;27.42;21.07;;;;;;;8.05;67.72;100914.73;1822194;78;20955;-71
2022/02/11 14:34:01;;;;;;;31.57;22.85;;;;;;;7.94;68.07;100911.75;1822143;78;21305;-70
2022/02/11 14:36:28;;;;;;;29.95;23.75;;;;;;;7.80;68.37;100917.59;1822192;78;21051;-71
2022/02/11 14:38:54;;;;;;;34.25;24.40;;;;;;;7.71;68.60;100919.73;1822169;78;21769;-70
2022/02/11 14:44:08;;;;;;;34.30;24.40;;;;;;;7.46;68.84;100910.34;1822089;78;21010;-69
2022/02/11 14:46:35;;;;;;;30.62;25.37;;;;;;;7.37;69.11;100914.64;1821871;78;20962;-70
2022/02/11 14:49:04;;;;;;;36.15;24.27;;;;;;;7.30;69.26;100914.52;1822051;78;20926;-72
2022/02/11 14:51:34;;;;;;;29.92;24.77;;;;;;;7.21;69.42;100917.89;1822034;78;21195;-70
2022/02/11 14:54:11;;;;;;;34.63;24.70;;;;;;;7.16;69.49;100920.28;1821947;78;21384;-71
2022/02/11 14:56:41;;;;;;;38.05;25.88;;;;;;;7.07;69.59;100926.75;1821939;78;20900;-73
2022/02/11 14:59:08;;;;;;;42.10;28.65;;;;;;;6.97;69.69;100928.85;1821937;78;20890;-71
2022/02/11 15:01:37;;;;;;;57.90;29.18;;;;;;;6.88;69.84;100933.59;1821960;78;21431;-70
2022/02/11 15:04:04;;;;;;;51.45;33.30;;;;;;;6.78;70.03;100939.18;1822214;78;21541;-70
2022/02/11 15:06:31;;;;;;;64.90;38.63;;;;;;;6.70;70.22;100935.17;1822394;78;20875;-71
2022/02/11 15:08:58;;;;;;;51.15;33.40;;;;;;;6.61;70.50;100938.98;1822041;78;20872;-72
2022/02/11 15:11:26;;;;;;;64.35;40.40;;;;;;;6.52;70.76;100947.99;1822274;78;20970;-72
2022/02/11 15:13:53;;;;;;;49.67;35.45;;;;;;;6.45;70.99;100943.92;1821951;78;20829;-72
2022/02/11 15:16:21;;;;;;;38.38;26.97;;;;;;;6.41;71.17;100947.09;1822054;78;21061;-75